sensor_id;sensor_type;location;lat;lon;timestamp;P1;durP1;ratioP1;P2;durP2;ratioP2
9413;SDS011;4746;35.664;139.738;2022-10-17T00:01:02;20.63;;;18.73;;
9413;SDS011;4746;35.664;139.738;2022-10-17T00:03:30;20.70;;;18.63;;
9413;SDS011;4746;35.664;139.738;2022-10-17T00:06:04;22.27;;;19.73;;
9413;SDS011;4746;35.664;139.738;2022-10-17T00:08:38;22.30;;;19.92;;
9413;SDS011;4746;35.664;139.738;2022-10-17T00:11:08;22.27;;;20.15;;
9413;SDS011;4746;35.664;139.738;2022-10-17T00:13:45;21.52;;;19.27;;
9413;SDS011;4746;35.664;139.738;2022-10-17T00:16:22;20.30;;;18.38;;
9413;SDS011;4746;35.664;139.738;2022-10-17T00:18:55;20.75;;;18.90;;
9413;SDS011;4746;35.664;139.738;2022-10-17T00:21:23;21.75;;;19.20;;
9413;SDS011;4746;35.664;139.738;2022-10-17T00:23:51;23.98;;;20.70;;
9413;SDS011;4746;35.664;139.738;2022-10-17T00:26:19;24.52;;;22.05;;
9413;SDS011;4746;35.664;139.738;2022-10-17T00:28:48;24.02;;;21.45;;
9413;SDS011;4746;35.664;139.738;2022-10-17T00:31:18;23.67;;;21.08;;
9413;SDS011;4746;35.664;139.738;2022-10-17T00:33:46;23.98;;;21.38;;
9413;SDS011;4746;35.664;139.738;2022-10-17T00:36:16;24.33;;;21.15;;
9413;SDS011;4746;35.664;139.738;2022-10-17T00:38:50;28.02;;;22.15;;
9413;SDS011;4746;35.664;139.738;2022-10-17T00:41:23;25.38;;;21.40;;
9413;SDS011;4746;35.664;139.738;2022-10-17T00:44:01;25.98;;;22.85;;
9413;SDS011;4746;35.664;139.738;2022-10-17T00:46:34;25.02;;;22.42;;
9413;SDS011;4746;35.664;139.738;2022-10-17T00:49:05;27.98;;;23.30;;
9413;SDS011;4746;35.664;139.738;2022-10-17T00:54:33;31.52;;;22.80;;
9413;SDS011;4746;35.664;139.738;2022-10-17T00:57:08;26.02;;;20.30;;
9413;SDS011;4746;35.664;139.738;2022-10-17T00:59:37;24.73;;;21.05;;
9413;SDS011;4746;35.664;139.738;2022-10-17T01:02:12;26.30;;;20.42;;
9413;SDS011;4746;35.664;139.738;2022-10-17T01:04:44;25.10;;;20.77;;
9413;SDS011;4746;35.664;139.738;2022-10-17T01:07:16;26.05;;;20.92;;
9413;SDS011;4746;35.664;139.738;2022-10-17T01:09:44;27.52;;;21.00;;
9413;SDS011;4746;35.664;139.738;2022-10-17T01:12:16;24.75;;;21.23;;
9413;SDS011;4746;35.664;139.738;2022-10-17T01:15:00;25.15;;;20.38;;
9413;SDS011;4746;35.664;139.738;2022-10-17T01:23:23;24.60;;;20.15;;
9413;SDS011;4746;35.664;139.738;2022-10-17T01:26:10;29.08;;;21.80;;
9413;SDS011;4746;35.664;139.738;2022-10-17T01:34:29;34.58;;;24.00;;
9413;SDS011;4746;35.664;139.738;2022-10-17T01:40:17;25.95;;;23.15;;
9413;SDS011;4746;35.664;139.738;2022-10-17T01:43:23;25.90;;;21.35;;
9413;SDS011;4746;35.664;139.738;2022-10-17T01:46:29;24.35;;;21.00;;
9413;SDS011;4746;35.664;139.738;2022-10-17T01:49:02;28.45;;;20.23;;
9413;SDS011;4746;35.664;139.738;2022-10-17T01:54:54;22.83;;;19.65;;
9413;SDS011;4746;35.664;139.738;2022-10-17T01:57:50;26.77;;;21.38;;
9413;SDS011;4746;35.664;139.738;2022-10-17T02:00:25;23.33;;;19.48;;
9413;SDS011;4746;35.664;139.738;2022-10-17T02:02:57;23.30;;;19.55;;
9413;SDS011;4746;35.664;139.738;2022-10-17T02:05:47;25.90;;;20.83;;
9413;SDS011;4746;35.664;139.738;2022-10-17T02:08:23;25.50;;;19.92;;
9413;SDS011;4746;35.664;139.738;2022-10-17T02:11:16;25.38;;;20.30;;
9413;SDS011;4746;35.664;139.738;2022-10-17T02:17:05;27.40;;;20.35;;
9413;SDS011;4746;35.664;139.738;2022-10-17T02:20:00;24.48;;;20.83;;
9413;SDS011;4746;35.664;139.738;2022-10-17T02:25:47;24.05;;;20.42;;
9413;SDS011;4746;35.664;139.738;2022-10-17T02:31:28;29.35;;;22.27;;
9413;SDS011;4746;35.664;139.738;2022-10-17T02:34:15;33.08;;;23.05;;
9413;SDS011;4746;35.664;139.738;2022-10-17T02:36:53;28.80;;;21.30;;
9413;SDS011;4746;35.664;139.738;2022-10-17T02:39:25;28.52;;;21.40;;
9413;SDS011;4746;35.664;139.738;2022-10-17T02:41:55;27.60;;;21.77;;
9413;SDS011;4746;35.664;139.738;2022-10-17T02:44:28;29.33;;;22.13;;
9413;SDS011;4746;35.664;139.738;2022-10-17T02:47:00;27.67;;;22.67;;
9413;SDS011;4746;35.664;139.738;2022-10-17T02:49:58;27.88;;;21.23;;
9413;SDS011;4746;35.664;139.738;2022-10-17T02:55:24;32.95;;;23.45;;
9413;SDS011;4746;35.664;139.738;2022-10-17T02:58:03;27.13;;;21.30;;
9413;SDS011;4746;35.664;139.738;2022-10-17T03:00:41;29.40;;;22.33;;
9413;SDS011;4746;35.664;139.738;2022-10-17T03:03:20;30.13;;;24.55;;
9413;SDS011;4746;35.664;139.738;2022-10-17T03:05:53;27.75;;;22.50;;
9413;SDS011;4746;35.664;139.738;2022-10-17T03:08:21;27.90;;;23.25;;
9413;SDS011;4746;35.664;139.738;2022-10-17T03:10:50;30.52;;;23.95;;
9413;SDS011;4746;35.664;139.738;2022-10-17T03:13:17;26.90;;;22.60;;
9413;SDS011;4746;35.664;139.738;2022-10-17T03:15:45;28.70;;;23.05;;
9413;SDS011;4746;35.664;139.738;2022-10-17T03:18:13;26.05;;;22.67;;
9413;SDS011;4746;35.664;139.738;2022-10-17T03:20:40;25.42;;;22.67;;
9413;SDS011;4746;35.664;139.738;2022-10-17T03:23:08;32.33;;;25.13;;
9413;SDS011;4746;35.664;139.738;2022-10-17T03:25:35;28.17;;;25.05;;
9413;SDS011;4746;35.664;139.738;2022-10-17T03:28:03;29.85;;;24.17;;
9413;SDS011;4746;35.664;139.738;2022-10-17T03:30:31;28.77;;;22.35;;
9413;SDS011;4746;35.664;139.738;2022-10-17T03:32:59;25.52;;;22.80;;
9413;SDS011;4746;35.664;139.738;2022-10-17T03:35:27;28.98;;;25.25;;
9413;SDS011;4746;35.664;139.738;2022-10-17T03:37:54;31.70;;;26.20;;
9413;SDS011;4746;35.664;139.738;2022-10-17T03:40:22;30.95;;;27.60;;
9413;SDS011;4746;35.664;139.738;2022-10-17T03:42:49;31.55;;;27.95;;
9413;SDS011;4746;35.664;139.738;2022-10-17T03:45:17;29.83;;;26.70;;
9413;SDS011;4746;35.664;139.738;2022-10-17T03:47:45;32.35;;;26.83;;
9413;SDS011;4746;35.664;139.738;2022-10-17T03:50:12;34.97;;;28.33;;
9413;SDS011;4746;35.664;139.738;2022-10-17T03:52:40;32.53;;;28.17;;
9413;SDS011;4746;35.664;139.738;2022-10-17T03:55:10;34.55;;;30.00;;
9413;SDS011;4746;35.664;139.738;2022-10-17T03:57:38;39.70;;;29.23;;
9413;SDS011;4746;35.664;139.738;2022-10-17T04:00:05;36.70;;;28.55;;
9413;SDS011;4746;35.664;139.738;2022-10-17T04:02:34;33.00;;;29.40;;
9413;SDS011;4746;35.664;139.738;2022-10-17T04:05:01;36.67;;;29.27;;
9413;SDS011;4746;35.664;139.738;2022-10-17T04:07:29;32.78;;;28.70;;
9413;SDS011;4746;35.664;139.738;2022-10-17T04:09:56;32.40;;;27.67;;
9413;SDS011;4746;35.664;139.738;2022-10-17T04:12:24;31.58;;;26.08;;
9413;SDS011;4746;35.664;139.738;2022-10-17T04:14:52;31.55;;;25.70;;
9413;SDS011;4746;35.664;139.738;2022-10-17T04:17:20;28.02;;;25.15;;
9413;SDS011;4746;35.664;139.738;2022-10-17T04:19:50;33.97;;;26.48;;
9413;SDS011;4746;35.664;139.738;2022-10-17T04:22:18;29.65;;;25.98;;
9413;SDS011;4746;35.664;139.738;2022-10-17T04:24:45;28.27;;;25.08;;
9413;SDS011;4746;35.664;139.738;2022-10-17T04:27:14;32.45;;;26.15;;
9413;SDS011;4746;35.664;139.738;2022-10-17T04:29:41;34.88;;;27.17;;
9413;SDS011;4746;35.664;139.738;2022-10-17T04:32:09;30.77;;;26.52;;
9413;SDS011;4746;35.664;139.738;2022-10-17T04:34:36;32.00;;;26.83;;
9413;SDS011;4746;35.664;139.738;2022-10-17T04:37:04;32.22;;;25.38;;
9413;SDS011;4746;35.664;139.738;2022-10-17T04:39:31;35.70;;;26.60;;
9413;SDS011;4746;35.664;139.738;2022-10-17T04:41:59;34.60;;;26.85;;
9413;SDS011;4746;35.664;139.738;2022-10-17T04:44:26;32.25;;;24.33;;
9413;SDS011;4746;35.664;139.738;2022-10-17T04:46:55;32.55;;;26.70;;
9413;SDS011;4746;35.664;139.738;2022-10-17T04:49:22;28.13;;;25.15;;
9413;SDS011;4746;35.664;139.738;2022-10-17T04:51:50;29.40;;;25.55;;
9413;SDS011;4746;35.664;139.738;2022-10-17T04:54:17;31.70;;;26.38;;
9413;SDS011;4746;35.664;139.738;2022-10-17T04:56:45;33.88;;;27.33;;
9413;SDS011;4746;35.664;139.738;2022-10-17T04:59:13;34.67;;;26.75;;
9413;SDS011;4746;35.664;139.738;2022-10-17T05:01:40;37.88;;;31.30;;
9413;SDS011;4746;35.664;139.738;2022-10-17T05:04:09;30.75;;;27.50;;
9413;SDS011;4746;35.664;139.738;2022-10-17T05:06:36;36.22;;;28.95;;
9413;SDS011;4746;35.664;139.738;2022-10-17T05:09:04;33.05;;;28.15;;
9413;SDS011;4746;35.664;139.738;2022-10-17T05:11:32;34.15;;;28.55;;
9413;SDS011;4746;35.664;139.738;2022-10-17T05:14:00;31.17;;;27.65;;
9413;SDS011;4746;35.664;139.738;2022-10-17T05:16:28;31.30;;;27.65;;
9413;SDS011;4746;35.664;139.738;2022-10-17T05:18:56;33.35;;;28.17;;
9413;SDS011;4746;35.664;139.738;2022-10-17T05:21:25;35.15;;;28.08;;
9413;SDS011;4746;35.664;139.738;2022-10-17T05:23:54;36.13;;;29.33;;
9413;SDS011;4746;35.664;139.738;2022-10-17T05:26:22;35.22;;;29.38;;
9413;SDS011;4746;35.664;139.738;2022-10-17T05:28:50;34.28;;;28.88;;
9413;SDS011;4746;35.664;139.738;2022-10-17T05:31:19;33.83;;;30.15;;
9413;SDS011;4746;35.664;139.738;2022-10-17T05:33:46;34.22;;;28.92;;
9413;SDS011;4746;35.664;139.738;2022-10-17T05:36:14;36.42;;;29.88;;
9413;SDS011;4746;35.664;139.738;2022-10-17T05:38:41;36.20;;;30.73;;
9413;SDS011;4746;35.664;139.738;2022-10-17T05:41:09;35.38;;;30.55;;
9413;SDS011;4746;35.664;139.738;2022-10-17T05:43:36;36.28;;;28.52;;
9413;SDS011;4746;35.664;139.738;2022-10-17T05:46:04;32.97;;;29.00;;
9413;SDS011;4746;35.664;139.738;2022-10-17T05:48:32;33.72;;;29.27;;
9413;SDS011;4746;35.664;139.738;2022-10-17T05:51:02;29.90;;;25.77;;
9413;SDS011;4746;35.664;139.738;2022-10-17T05:53:34;32.58;;;28.02;;
9413;SDS011;4746;35.664;139.738;2022-10-17T05:56:06;30.20;;;26.75;;
9413;SDS011;4746;35.664;139.738;2022-10-17T05:58:40;29.23;;;26.05;;
9413;SDS011;4746;35.664;139.738;2022-10-17T06:01:10;33.00;;;28.15;;
9413;SDS011;4746;35.664;139.738;2022-10-17T06:03:39;39.95;;;29.38;;
9413;SDS011;4746;35.664;139.738;2022-10-17T06:06:07;35.83;;;28.45;;
9413;SDS011;4746;35.664;139.738;2022-10-17T06:08:38;33.13;;;26.38;;
9413;SDS011;4746;35.664;139.738;2022-10-17T06:11:06;33.95;;;29.02;;
9413;SDS011;4746;35.664;139.738;2022-10-17T06:13:33;34.78;;;29.63;;
9413;SDS011;4746;35.664;139.738;2022-10-17T06:16:01;32.00;;;27.80;;
9413;SDS011;4746;35.664;139.738;2022-10-17T06:18:28;33.88;;;28.40;;
9413;SDS011;4746;35.664;139.738;2022-10-17T06:21:04;32.55;;;28.10;;
9413;SDS011;4746;35.664;139.738;2022-10-17T06:23:34;36.63;;;29.40;;
9413;SDS011;4746;35.664;139.738;2022-10-17T06:26:02;38.53;;;28.52;;
9413;SDS011;4746;35.664;139.738;2022-10-17T06:28:31;37.78;;;28.77;;
9413;SDS011;4746;35.664;139.738;2022-10-17T06:31:03;40.22;;;29.23;;
9413;SDS011;4746;35.664;139.738;2022-10-17T06:33:36;37.13;;;28.70;;
9413;SDS011;4746;35.664;139.738;2022-10-17T06:36:04;39.53;;;29.80;;
9413;SDS011;4746;35.664;139.738;2022-10-17T06:38:36;35.00;;;29.70;;
9413;SDS011;4746;35.664;139.738;2022-10-17T06:41:04;46.53;;;29.95;;
9413;SDS011;4746;35.664;139.738;2022-10-17T06:43:41;35.97;;;29.00;;
9413;SDS011;4746;35.664;139.738;2022-10-17T06:46:11;35.83;;;29.40;;
9413;SDS011;4746;35.664;139.738;2022-10-17T06:48:41;34.83;;;29.73;;
9413;SDS011;4746;35.664;139.738;2022-10-17T06:51:09;40.58;;;28.88;;
9413;SDS011;4746;35.664;139.738;2022-10-17T06:53:37;37.22;;;30.05;;
9413;SDS011;4746;35.664;139.738;2022-10-17T06:56:06;41.78;;;31.83;;
9413;SDS011;4746;35.664;139.738;2022-10-17T06:58:36;37.08;;;29.88;;
9413;SDS011;4746;35.664;139.738;2022-10-17T07:01:08;36.15;;;31.05;;
9413;SDS011;4746;35.664;139.738;2022-10-17T07:03:38;34.55;;;29.88;;
9413;SDS011;4746;35.664;139.738;2022-10-17T07:06:06;38.45;;;31.65;;
9413;SDS011;4746;35.664;139.738;2022-10-17T07:08:41;37.90;;;31.58;;
9413;SDS011;4746;35.664;139.738;2022-10-17T07:11:14;37.63;;;32.28;;
9413;SDS011;4746;35.664;139.738;2022-10-17T07:13:44;41.05;;;30.13;;
9413;SDS011;4746;35.664;139.738;2022-10-17T07:16:13;37.22;;;31.02;;
9413;SDS011;4746;35.664;139.738;2022-10-17T07:18:42;42.88;;;32.42;;
9413;SDS011;4746;35.664;139.738;2022-10-17T07:21:13;37.80;;;31.88;;
9413;SDS011;4746;35.664;139.738;2022-10-17T07:23:41;37.53;;;31.40;;
9413;SDS011;4746;35.664;139.738;2022-10-17T07:26:10;37.42;;;32.20;;
9413;SDS011;4746;35.664;139.738;2022-10-17T07:28:41;37.70;;;33.70;;
9413;SDS011;4746;35.664;139.738;2022-10-17T07:31:12;46.05;;;33.47;;
9413;SDS011;4746;35.664;139.738;2022-10-17T07:33:42;35.55;;;31.52;;
9413;SDS011;4746;35.664;139.738;2022-10-17T07:36:13;40.28;;;32.70;;
9413;SDS011;4746;35.664;139.738;2022-10-17T07:38:42;37.55;;;33.15;;
9413;SDS011;4746;35.664;139.738;2022-10-17T07:41:10;41.13;;;33.35;;
9413;SDS011;4746;35.664;139.738;2022-10-17T07:43:38;39.83;;;32.13;;
9413;SDS011;4746;35.664;139.738;2022-10-17T07:46:07;37.00;;;32.17;;
9413;SDS011;4746;35.664;139.738;2022-10-17T07:48:36;38.08;;;32.45;;
9413;SDS011;4746;35.664;139.738;2022-10-17T07:51:05;36.40;;;31.90;;
9413;SDS011;4746;35.664;139.738;2022-10-17T07:53:35;34.20;;;29.98;;
9413;SDS011;4746;35.664;139.738;2022-10-17T07:56:06;34.53;;;30.40;;
9413;SDS011;4746;35.664;139.738;2022-10-17T07:58:35;36.08;;;31.77;;
9413;SDS011;4746;35.664;139.738;2022-10-17T08:01:04;36.65;;;29.63;;
9413;SDS011;4746;35.664;139.738;2022-10-17T08:03:39;34.33;;;30.83;;
9413;SDS011;4746;35.664;139.738;2022-10-17T08:06:08;35.08;;;30.50;;
9413;SDS011;4746;35.664;139.738;2022-10-17T08:08:37;35.50;;;31.80;;
9413;SDS011;4746;35.664;139.738;2022-10-17T08:11:05;40.15;;;32.97;;
9413;SDS011;4746;35.664;139.738;2022-10-17T08:13:36;36.22;;;31.60;;
9413;SDS011;4746;35.664;139.738;2022-10-17T08:16:05;37.95;;;33.67;;
9413;SDS011;4746;35.664;139.738;2022-10-17T08:18:37;38.08;;;33.97;;
9413;SDS011;4746;35.664;139.738;2022-10-17T08:21:07;47.25;;;34.22;;
9413;SDS011;4746;35.664;139.738;2022-10-17T08:23:37;36.42;;;32.00;;
9413;SDS011;4746;35.664;139.738;2022-10-17T08:26:06;38.50;;;33.50;;
9413;SDS011;4746;35.664;139.738;2022-10-17T08:28:45;36.90;;;32.55;;
9413;SDS011;4746;35.664;139.738;2022-10-17T08:31:14;37.70;;;33.70;;
9413;SDS011;4746;35.664;139.738;2022-10-17T08:33:45;39.97;;;33.05;;
9413;SDS011;4746;35.664;139.738;2022-10-17T08:36:16;37.83;;;33.60;;
9413;SDS011;4746;35.664;139.738;2022-10-17T08:38:45;36.95;;;33.25;;
9413;SDS011;4746;35.664;139.738;2022-10-17T08:44:09;37.97;;;34.00;;
9413;SDS011;4746;35.664;139.738;2022-10-17T08:47:15;35.13;;;31.45;;
9413;SDS011;4746;35.664;139.738;2022-10-17T08:50:08;36.97;;;33.28;;
9413;SDS011;4746;35.664;139.738;2022-10-17T08:53:09;37.55;;;33.55;;
9413;SDS011;4746;35.664;139.738;2022-10-17T08:56:03;42.45;;;36.72;;
9413;SDS011;4746;35.664;139.738;2022-10-17T08:58:48;41.47;;;34.80;;
9413;SDS011;4746;35.664;139.738;2022-10-17T09:16:36;49.80;;;40.03;;
9413;SDS011;4746;35.664;139.738;2022-10-17T09:19:34;47.17;;;40.03;;
9413;SDS011;4746;35.664;139.738;2022-10-17T09:22:23;47.60;;;39.65;;
9413;SDS011;4746;35.664;139.738;2022-10-17T09:24:59;47.22;;;39.45;;
9413;SDS011;4746;35.664;139.738;2022-10-17T09:28:22;47.45;;;38.40;;
9413;SDS011;4746;35.664;139.738;2022-10-17T09:33:32;42.10;;;36.08;;
9413;SDS011;4746;35.664;139.738;2022-10-17T09:36:13;39.10;;;34.80;;
9413;SDS011;4746;35.664;139.738;2022-10-17T09:38:56;38.13;;;34.05;;
9413;SDS011;4746;35.664;139.738;2022-10-17T09:41:51;36.90;;;32.60;;
9413;SDS011;4746;35.664;139.738;2022-10-17T09:47:40;36.50;;;32.55;;
9413;SDS011;4746;35.664;139.738;2022-10-17T09:50:24;36.95;;;33.15;;
9413;SDS011;4746;35.664;139.738;2022-10-17T09:52:55;38.28;;;32.85;;
9413;SDS011;4746;35.664;139.738;2022-10-17T09:55:53;35.40;;;31.67;;
9413;SDS011;4746;35.664;139.738;2022-10-17T09:58:41;36.25;;;32.38;;
9413;SDS011;4746;35.664;139.738;2022-10-17T10:01:29;35.85;;;32.00;;
9413;SDS011;4746;35.664;139.738;2022-10-17T10:04:12;34.65;;;31.05;;
9413;SDS011;4746;35.664;139.738;2022-10-17T10:09:31;30.30;;;27.25;;
9413;SDS011;4746;35.664;139.738;2022-10-17T10:12:05;31.50;;;27.95;;
9413;SDS011;4746;35.664;139.738;2022-10-17T10:14:53;31.60;;;28.30;;
9413;SDS011;4746;35.664;139.738;2022-10-17T10:19:58;30.88;;;27.75;;
9413;SDS011;4746;35.664;139.738;2022-10-17T10:22:27;30.60;;;27.63;;
9413;SDS011;4746;35.664;139.738;2022-10-17T10:27:42;30.55;;;27.35;;
9413;SDS011;4746;35.664;139.738;2022-10-17T10:30:16;36.05;;;28.02;;
9413;SDS011;4746;35.664;139.738;2022-10-17T10:32:49;30.35;;;27.45;;
9413;SDS011;4746;35.664;139.738;2022-10-17T10:37:56;31.85;;;28.20;;
9413;SDS011;4746;35.664;139.738;2022-10-17T10:40:32;31.15;;;27.92;;
9413;SDS011;4746;35.664;139.738;2022-10-17T10:43:32;30.75;;;27.77;;
9413;SDS011;4746;35.664;139.738;2022-10-17T10:46:19;31.83;;;28.40;;
9413;SDS011;4746;35.664;139.738;2022-10-17T10:48:56;32.15;;;28.83;;
9413;SDS011;4746;35.664;139.738;2022-10-17T10:57:02;29.33;;;26.58;;
9413;SDS011;4746;35.664;139.738;2022-10-17T10:59:38;32.90;;;29.63;;
9413;SDS011;4746;35.664;139.738;2022-10-17T11:02:37;31.73;;;28.48;;
9413;SDS011;4746;35.664;139.738;2022-10-17T11:05:49;33.22;;;29.73;;
9413;SDS011;4746;35.664;139.738;2022-10-17T11:08:37;32.03;;;28.55;;
9413;SDS011;4746;35.664;139.738;2022-10-17T11:11:17;33.30;;;29.83;;
9413;SDS011;4746;35.664;139.738;2022-10-17T11:14:05;33.38;;;29.70;;
9413;SDS011;4746;35.664;139.738;2022-10-17T11:16:50;33.08;;;29.48;;
9413;SDS011;4746;35.664;139.738;2022-10-17T11:19:28;33.78;;;30.55;;
9413;SDS011;4746;35.664;139.738;2022-10-17T11:22:24;33.88;;;30.30;;
9413;SDS011;4746;35.664;139.738;2022-10-17T11:28:13;32.33;;;29.02;;
9413;SDS011;4746;35.664;139.738;2022-10-17T11:30:49;33.13;;;29.77;;
9413;SDS011;4746;35.664;139.738;2022-10-17T11:36:27;35.35;;;31.73;;
9413;SDS011;4746;35.664;139.738;2022-10-17T11:39:02;34.15;;;30.63;;
9413;SDS011;4746;35.664;139.738;2022-10-17T11:47:12;35.78;;;32.08;;
9413;SDS011;4746;35.664;139.738;2022-10-17T11:50:21;35.30;;;31.55;;
9413;SDS011;4746;35.664;139.738;2022-10-17T11:53:27;34.55;;;30.98;;
9413;SDS011;4746;35.664;139.738;2022-10-17T11:56:16;37.28;;;33.42;;
9413;SDS011;4746;35.664;139.738;2022-10-17T12:07:51;35.90;;;32.05;;
9413;SDS011;4746;35.664;139.738;2022-10-17T12:11:20;36.33;;;32.50;;
9413;SDS011;4746;35.664;139.738;2022-10-17T12:13:53;35.95;;;32.15;;
9413;SDS011;4746;35.664;139.738;2022-10-17T12:19:35;36.97;;;33.08;;
9413;SDS011;4746;35.664;139.738;2022-10-17T12:27:35;40.25;;;35.35;;
9413;SDS011;4746;35.664;139.738;2022-10-17T12:30:20;40.28;;;36.08;;
9413;SDS011;4746;35.664;139.738;2022-10-17T12:35:47;40.67;;;36.33;;
9413;SDS011;4746;35.664;139.738;2022-10-17T12:38:36;41.28;;;36.70;;
9413;SDS011;4746;35.664;139.738;2022-10-17T12:41:03;40.28;;;36.05;;
9413;SDS011;4746;35.664;139.738;2022-10-17T12:43:34;40.95;;;36.75;;
9413;SDS011;4746;35.664;139.738;2022-10-17T12:49:35;40.67;;;36.20;;
9413;SDS011;4746;35.664;139.738;2022-10-17T12:57:59;42.65;;;38.03;;
9413;SDS011;4746;35.664;139.738;2022-10-17T13:03:25;45.58;;;39.53;;
9413;SDS011;4746;35.664;139.738;2022-10-17T13:06:04;44.95;;;40.08;;
9413;SDS011;4746;35.664;139.738;2022-10-17T13:08:38;44.08;;;39.40;;
9413;SDS011;4746;35.664;139.738;2022-10-17T13:11:10;42.80;;;38.15;;
9413;SDS011;4746;35.664;139.738;2022-10-17T13:16:31;46.58;;;41.58;;
9413;SDS011;4746;35.664;139.738;2022-10-17T13:19:02;45.90;;;40.88;;
9413;SDS011;4746;35.664;139.738;2022-10-17T13:21:51;45.88;;;39.38;;
9413;SDS011;4746;35.664;139.738;2022-10-17T13:24:38;46.95;;;41.30;;
9413;SDS011;4746;35.664;139.738;2022-10-17T13:27:28;44.67;;;39.88;;
9413;SDS011;4746;35.664;139.738;2022-10-17T13:29:57;48.45;;;40.63;;
9413;SDS011;4746;35.664;139.738;2022-10-17T13:32:45;49.97;;;42.30;;
9413;SDS011;4746;35.664;139.738;2022-10-17T13:35:14;47.75;;;42.45;;
9413;SDS011;4746;35.664;139.738;2022-10-17T13:37:55;45.72;;;40.50;;
9413;SDS011;4746;35.664;139.738;2022-10-17T13:40:26;50.47;;;43.42;;
9413;SDS011;4746;35.664;139.738;2022-10-17T13:42:56;46.20;;;41.13;;
9413;SDS011;4746;35.664;139.738;2022-10-17T13:45:30;45.47;;;40.60;;
9413;SDS011;4746;35.664;139.738;2022-10-17T13:48:05;44.50;;;39.78;;
9413;SDS011;4746;35.664;139.738;2022-10-17T13:50:49;44.10;;;39.50;;
9413;SDS011;4746;35.664;139.738;2022-10-17T13:53:37;45.28;;;40.30;;
9413;SDS011;4746;35.664;139.738;2022-10-17T13:58:45;46.05;;;41.25;;
9413;SDS011;4746;35.664;139.738;2022-10-17T14:01:25;50.58;;;44.30;;
9413;SDS011;4746;35.664;139.738;2022-10-17T14:03:55;46.25;;;41.63;;
9413;SDS011;4746;35.664;139.738;2022-10-17T14:06:26;43.17;;;38.33;;
9413;SDS011;4746;35.664;139.738;2022-10-17T14:08:59;46.95;;;41.65;;
9413;SDS011;4746;35.664;139.738;2022-10-17T14:11:32;44.65;;;40.05;;
9413;SDS011;4746;35.664;139.738;2022-10-17T14:14:06;46.15;;;41.28;;
9413;SDS011;4746;35.664;139.738;2022-10-17T14:16:45;45.67;;;40.88;;
9413;SDS011;4746;35.664;139.738;2022-10-17T14:21:54;46.13;;;40.53;;
9413;SDS011;4746;35.664;139.738;2022-10-17T14:24:50;43.72;;;39.15;;
9413;SDS011;4746;35.664;139.738;2022-10-17T14:30:06;40.42;;;36.20;;
9413;SDS011;4746;35.664;139.738;2022-10-17T14:32:56;42.20;;;37.65;;
9413;SDS011;4746;35.664;139.738;2022-10-17T14:35:28;41.28;;;36.97;;
9413;SDS011;4746;35.664;139.738;2022-10-17T14:38:05;39.13;;;35.17;;
9413;SDS011;4746;35.664;139.738;2022-10-17T14:40:33;38.47;;;34.88;;
9413;SDS011;4746;35.664;139.738;2022-10-17T14:43:02;37.65;;;33.95;;
9413;SDS011;4746;35.664;139.738;2022-10-17T14:45:32;36.85;;;33.33;;
9413;SDS011;4746;35.664;139.738;2022-10-17T14:48:08;36.60;;;32.80;;
9413;SDS011;4746;35.664;139.738;2022-10-17T14:54:02;34.75;;;31.35;;
9413;SDS011;4746;35.664;139.738;2022-10-17T14:56:51;33.72;;;30.42;;
9413;SDS011;4746;35.664;139.738;2022-10-17T14:59:20;34.08;;;30.88;;
9413;SDS011;4746;35.664;139.738;2022-10-17T15:01:49;34.95;;;31.30;;
9413;SDS011;4746;35.664;139.738;2022-10-17T15:04:17;35.03;;;31.40;;
9413;SDS011;4746;35.664;139.738;2022-10-17T15:06:52;37.22;;;33.45;;
9413;SDS011;4746;35.664;139.738;2022-10-17T15:09:20;34.80;;;31.30;;
9413;SDS011;4746;35.664;139.738;2022-10-17T15:11:48;35.60;;;31.90;;
9413;SDS011;4746;35.664;139.738;2022-10-17T15:14:15;36.15;;;32.45;;
9413;SDS011;4746;35.664;139.738;2022-10-17T15:16:43;36.85;;;32.92;;
9413;SDS011;4746;35.664;139.738;2022-10-17T15:19:11;35.83;;;32.22;;
9413;SDS011;4746;35.664;139.738;2022-10-17T15:21:39;36.85;;;32.88;;
9413;SDS011;4746;35.664;139.738;2022-10-17T15:24:09;37.10;;;33.40;;
9413;SDS011;4746;35.664;139.738;2022-10-17T15:26:36;34.58;;;31.27;;
9413;SDS011;4746;35.664;139.738;2022-10-17T15:29:04;35.22;;;31.58;;
9413;SDS011;4746;35.664;139.738;2022-10-17T15:31:31;35.93;;;32.37;;
9413;SDS011;4746;35.664;139.738;2022-10-17T15:34:01;35.45;;;31.70;;
9413;SDS011;4746;35.664;139.738;2022-10-17T15:36:29;34.92;;;31.63;;
9413;SDS011;4746;35.664;139.738;2022-10-17T15:39:16;33.90;;;30.52;;
9413;SDS011;4746;35.664;139.738;2022-10-17T15:41:44;33.40;;;29.90;;
9413;SDS011;4746;35.664;139.738;2022-10-17T15:44:13;32.42;;;29.23;;
9413;SDS011;4746;35.664;139.738;2022-10-17T15:46:40;31.98;;;28.80;;
9413;SDS011;4746;35.664;139.738;2022-10-17T15:49:15;28.95;;;26.25;;
9413;SDS011;4746;35.664;139.738;2022-10-17T15:51:44;29.08;;;26.30;;
9413;SDS011;4746;35.664;139.738;2022-10-17T15:54:11;29.63;;;26.80;;
9413;SDS011;4746;35.664;139.738;2022-10-17T15:56:40;28.98;;;26.17;;
9413;SDS011;4746;35.664;139.738;2022-10-17T15:59:14;29.42;;;26.70;;
9413;SDS011;4746;35.664;139.738;2022-10-17T16:01:47;28.77;;;25.90;;
9413;SDS011;4746;35.664;139.738;2022-10-17T16:04:15;27.67;;;25.15;;
9413;SDS011;4746;35.664;139.738;2022-10-17T16:06:43;26.20;;;23.58;;
9413;SDS011;4746;35.664;139.738;2022-10-17T16:09:10;26.80;;;24.20;;
9413;SDS011;4746;35.664;139.738;2022-10-17T16:11:39;27.08;;;24.38;;
9413;SDS011;4746;35.664;139.738;2022-10-17T16:14:10;24.55;;;22.05;;
9413;SDS011;4746;35.664;139.738;2022-10-17T16:16:40;21.65;;;19.63;;
9413;SDS011;4746;35.664;139.738;2022-10-17T16:19:08;21.65;;;19.70;;
9413;SDS011;4746;35.664;139.738;2022-10-17T16:21:37;20.48;;;18.70;;
9413;SDS011;4746;35.664;139.738;2022-10-17T16:24:09;22.10;;;19.92;;
9413;SDS011;4746;35.664;139.738;2022-10-17T16:26:38;20.48;;;18.67;;
9413;SDS011;4746;35.664;139.738;2022-10-17T16:29:05;20.35;;;18.55;;
9413;SDS011;4746;35.664;139.738;2022-10-17T16:31:35;19.30;;;17.65;;
9413;SDS011;4746;35.664;139.738;2022-10-17T16:34:10;20.33;;;18.45;;
9413;SDS011;4746;35.664;139.738;2022-10-17T16:36:40;18.60;;;17.00;;
9413;SDS011;4746;35.664;139.738;2022-10-17T16:39:08;19.42;;;17.83;;
9413;SDS011;4746;35.664;139.738;2022-10-17T16:41:36;17.48;;;15.77;;
9413;SDS011;4746;35.664;139.738;2022-10-17T16:44:06;18.52;;;16.92;;
9413;SDS011;4746;35.664;139.738;2022-10-17T16:46:39;17.00;;;15.60;;
9413;SDS011;4746;35.664;139.738;2022-10-17T16:49:06;17.23;;;15.70;;
9413;SDS011;4746;35.664;139.738;2022-10-17T16:51:36;18.52;;;16.73;;
9413;SDS011;4746;35.664;139.738;2022-10-17T16:54:04;17.50;;;16.02;;
9413;SDS011;4746;35.664;139.738;2022-10-17T16:56:31;16.27;;;14.95;;
9413;SDS011;4746;35.664;139.738;2022-10-17T16:58:59;17.40;;;15.80;;
9413;SDS011;4746;35.664;139.738;2022-10-17T17:01:27;15.68;;;14.27;;
9413;SDS011;4746;35.664;139.738;2022-10-17T17:03:55;15.50;;;14.18;;
9413;SDS011;4746;35.664;139.738;2022-10-17T17:06:24;13.73;;;12.57;;
9413;SDS011;4746;35.664;139.738;2022-10-17T17:08:55;14.32;;;13.13;;
9413;SDS011;4746;35.664;139.738;2022-10-17T17:11:23;14.68;;;13.27;;